Time;durP1;ratioP1;P1;durP2;ratioP2;P2;SDS_P1;SDS_P2;PMS_P1;PMS_P2;Temp;Humidity;BMP_temperature;BMP_pressure;BME280_temperature;BME280_humidity;BME280_pressure;Samples;Min_cycle;Max_cycle;Signal;HPM_P1;HPM_P2
2023/12/13 00:01:38;;;;;;;4.95;3.90;;;6.50;70.70;;;;;;5034822;28;20021;-82
2023/12/13 00:04:04;;;;;;;4.80;3.70;;;6.50;70.70;;;;;;5034759;28;20052;-83
2023/12/13 00:06:30;;;;;;;5.32;3.80;;;6.40;70.60;;;;;;5014232;28;20018;-82
2023/12/13 00:08:56;;;;;;;5.13;3.90;;;6.50;70.70;;;;;;5017406;28;20442;-84
2023/12/13 00:11:22;;;;;;;4.72;3.78;;;6.40;70.60;;;;;;5017939;28;20084;-81
2023/12/13 00:13:48;;;;;;;5.07;4.20;;;6.40;70.70;;;;;;5036295;28;20075;-82
2023/12/13 00:16:14;;;;;;;5.90;4.15;;;6.40;70.70;;;;;;5035936;28;20025;-81
2023/12/13 00:18:41;;;;;;;5.53;4.00;;;6.40;70.70;;;;;;5017979;28;20087;-82
2023/12/13 00:21:08;;;;;;;5.65;3.90;;;6.40;70.70;;;;;;5017632;28;20160;-81
2023/12/13 00:23:34;;;;;;;4.50;3.83;;;6.40;70.80;;;;;;5017411;28;20033;-81
2023/12/13 00:26:00;;;;;;;6.18;4.18;;;6.40;70.80;;;;;;5018468;28;20025;-81
2023/12/13 00:28:26;;;;;;;4.82;3.53;;;6.40;70.80;;;;;;5013803;28;20125;-81
2023/12/13 00:30:52;;;;;;;5.43;4.10;;;6.40;70.80;;;;;;5017179;28;20030;-81
2023/12/13 00:33:17;;;;;;;5.15;3.90;;;6.40;70.80;;;;;;5035301;28;20056;-83
2023/12/13 00:35:43;;;;;;;5.85;4.10;;;6.40;70.90;;;;;;5035019;28;20034;-81
2023/12/13 00:38:09;;;;;;;6.78;4.38;;;6.40;70.90;;;;;;5016676;28;20029;-82
2023/12/13 00:40:35;;;;;;;6.50;4.20;;;6.40;70.90;;;;;;5016654;28;20124;-81
2023/12/13 00:43:01;;;;;;;6.05;4.25;;;6.40;70.90;;;;;;5017406;28;20029;-81
2023/12/13 00:45:28;;;;;;;6.82;4.43;;;6.40;70.90;;;;;;5035445;28;20040;-82
2023/12/13 00:47:54;;;;;;;5.68;3.90;;;6.40;70.80;;;;;;5017035;28;20036;-81
2023/12/13 00:50:20;;;;;;;6.68;4.45;;;6.40;70.80;;;;;;5015525;28;20026;-81
2023/12/13 00:52:45;;;;;;;6.47;4.55;;;6.40;70.90;;;;;;5034821;28;20065;-81
2023/12/13 00:55:11;;;;;;;7.63;4.75;;;6.40;70.90;;;;;;5016707;28;20365;-81
2023/12/13 00:57:37;;;;;;;8.02;5.35;;;6.40;71.00;;;;;;5034740;28;20032;-82
2023/12/13 01:00:05;;;;;;;7.10;4.93;;;6.40;71.00;;;;;;5016639;28;20029;-82
2023/12/13 01:02:31;;;;;;;7.80;5.00;;;6.40;71.00;;;;;;5016997;28;20037;-81
2023/12/13 01:04:57;;;;;;;7.55;5.22;;;6.40;71.00;;;;;;5015099;28;20079;-81
2023/12/13 01:07:22;;;;;;;7.05;4.75;;;6.40;71.00;;;;;;5035120;28;20025;-82
2023/12/13 01:09:48;;;;;;;7.13;4.70;;;6.40;71.00;;;;;;5015394;28;20026;-82
2023/12/13 01:12:15;;;;;;;5.45;4.10;;;6.40;71.00;;;;;;5033727;28;20442;-81
2023/12/13 01:14:41;;;;;;;5.55;4.32;;;6.40;71.00;;;;;;5034681;28;20108;-81
2023/12/13 01:17:07;;;;;;;6.22;4.60;;;6.40;71.00;;;;;;5034718;28;20053;-81
2023/12/13 01:19:33;;;;;;;7.25;4.85;;;6.40;71.00;;;;;;5034337;28;20026;-82
2023/12/13 01:21:59;;;;;;;6.68;4.15;;;6.40;71.00;;;;;;5016849;28;20078;-81
2023/12/13 01:24:25;;;;;;;6.28;4.82;;;6.40;71.00;;;;;;5034667;28;20033;-82
2023/12/13 01:26:51;;;;;;;6.28;4.30;;;6.40;71.00;;;;;;5034334;28;20045;-82
2023/12/13 01:29:16;;;;;;;6.18;4.28;;;6.40;71.00;;;;;;5016202;28;20116;-82
2023/12/13 01:31:42;;;;;;;5.55;4.43;;;6.30;71.00;;;;;;5034461;28;20021;-81
2023/12/13 01:34:08;;;;;;;5.78;4.40;;;6.40;71.00;;;;;;5033704;28;20048;-81
2023/12/13 01:36:44;;;;;;;6.63;4.30;;;6.40;71.10;;;;;;5016303;28;20029;-81
2023/12/13 01:39:17;;;;;;;5.65;4.10;;;6.40;71.00;;;;;;5034790;28;20356;-81
2023/12/13 01:41:43;;;;;;;5.20;4.20;;;6.40;71.00;;;;;;5033838;28;20025;-81
2023/12/13 01:44:10;;;;;;;5.40;4.10;;;6.40;71.00;;;;;;5016229;28;20030;-82
2023/12/13 01:46:37;;;;;;;5.50;3.92;;;6.40;71.00;;;;;;5032968;28;20052;-81
2023/12/13 01:49:06;;;;;;;6.03;4.40;;;6.40;71.00;;;;;;5033000;28;20057;-81
2023/12/13 01:51:34;;;;;;;5.85;4.03;;;6.40;71.00;;;;;;5015956;28;20380;-80
2023/12/13 01:54:02;;;;;;;5.10;3.92;;;6.40;71.00;;;;;;5016147;28;20033;-81
2023/12/13 01:56:30;;;;;;;4.03;3.40;;;6.40;71.00;;;;;;5033654;28;20025;-82
2023/12/13 01:58:56;;;;;;;5.35;4.05;;;6.40;71.00;;;;;;5033877;28;20026;-82
2023/12/13 02:01:21;;;;;;;5.03;3.85;;;6.40;71.00;;;;;;5011648;28;20503;-82
2023/12/13 02:03:48;;;;;;;5.53;3.92;;;6.40;71.00;;;;;;5015977;28;20091;-81
2023/12/13 02:06:13;;;;;;;6.63;4.57;;;6.40;71.00;;;;;;5033388;28;20083;-82
2023/12/13 02:08:39;;;;;;;4.75;3.53;;;6.40;71.00;;;;;;5033631;28;20025;-82
2023/12/13 02:11:06;;;;;;;5.63;3.72;;;6.40;70.90;;;;;;5033389;28;20044;-81
2023/12/13 02:13:32;;;;;;;5.75;4.05;;;6.40;71.00;;;;;;5012022;28;20037;-82
2023/12/13 02:15:58;;;;;;;4.68;3.80;;;6.40;71.00;;;;;;5010425;28;20369;-82
2023/12/13 02:18:24;;;;;;;5.55;4.25;;;6.40;71.00;;;;;;5033973;28;20040;-82
2023/12/13 02:20:52;;;;;;;5.30;4.07;;;6.50;71.00;;;;;;5015797;28;20033;-82
2023/12/13 02:23:18;;;;;;;6.45;4.00;;;6.50;71.00;;;;;;5032351;28;20387;-82
2023/12/13 02:25:59;;;;;;;5.30;3.78;;;6.50;71.00;;;;;;5033342;28;20033;-82
2023/12/13 02:28:26;;;;;;;4.85;3.70;;;6.50;71.00;;;;;;5014888;28;20360;-80
2023/12/13 02:30:55;;;;;;;6.63;4.40;;;6.50;70.90;;;;;;5014564;28;20455;-83
2023/12/13 02:33:24;;;;;;;4.93;3.90;;;6.50;71.00;;;;;;5015164;28;20045;-83
2023/12/13 02:35:51;;;;;;;5.88;4.30;;;6.50;71.00;;;;;;5032783;28;20100;-82
2023/12/13 02:38:17;;;;;;;4.72;3.58;;;6.50;71.00;;;;;;5033195;28;20036;-82
2023/12/13 02:40:43;;;;;;;5.47;4.00;;;6.50;71.00;;;;;;5014588;28;20033;-81
2023/12/13 02:43:09;;;;;;;5.82;4.30;;;6.50;71.00;;;;;;5013887;28;20037;-82
2023/12/13 02:45:35;;;;;;;4.90;3.63;;;6.50;70.90;;;;;;5032588;28;20036;-82
2023/12/13 02:48:00;;;;;;;5.00;3.55;;;6.50;70.90;;;;;;5033129;28;20072;-81
2023/12/13 02:50:26;;;;;;;5.43;3.97;;;6.50;70.90;;;;;;5008740;28;20033;-82
2023/12/13 02:52:52;;;;;;;5.40;3.55;;;6.40;70.90;;;;;;5003975;28;20055;-82
2023/12/13 02:55:18;;;;;;;5.47;3.70;;;6.40;70.90;;;;;;5015546;28;20121;-82
2023/12/13 02:57:44;;;;;;;5.60;4.10;;;6.50;71.00;;;;;;5014928;28;20026;-82
2023/12/13 03:00:10;;;;;;;5.88;4.32;;;6.40;71.00;;;;;;5015278;28;20021;-81
2023/12/13 03:02:38;;;;;;;7.20;4.63;;;6.50;71.00;;;;;;5030082;28;20057;-82
2023/12/13 03:05:04;;;;;;;6.32;4.28;;;6.50;71.00;;;;;;5027929;28;20022;-81
2023/12/13 03:07:30;;;;;;;5.55;4.18;;;6.50;71.00;;;;;;5015419;28;20048;-82
2023/12/13 03:09:55;;;;;;;6.68;4.32;;;6.50;71.00;;;;;;5015522;28;20026;-82
2023/12/13 03:12:21;;;;;;;6.90;4.35;;;6.50;71.00;;;;;;5032588;28;20037;-81
2023/12/13 03:14:47;;;;;;;6.05;4.60;;;6.50;71.00;;;;;;5031156;28;20526;-82
2023/12/13 03:17:13;;;;;;;6.07;4.57;;;6.50;71.00;;;;;;5015610;28;20360;-81
2023/12/13 03:19:39;;;;;;;6.30;4.75;;;6.50;71.00;;;;;;5014842;28;20364;-81
2023/12/13 03:22:05;;;;;;;6.85;5.07;;;6.50;71.00;;;;;;5014762;28;20033;-81
2023/12/13 03:24:30;;;;;;;6.72;5.05;;;6.50;71.00;;;;;;5010289;28;20036;-81
2023/12/13 03:26:56;;;;;;;5.95;4.55;;;6.50;71.00;;;;;;5027182;28;20104;-81
2023/12/13 03:29:22;;;;;;;6.00;4.68;;;6.50;71.00;;;;;;5014427;28;20045;-83
2023/12/13 03:31:48;;;;;;;7.13;5.20;;;6.50;71.00;;;;;;4995660;28;20022;-82
2023/12/13 03:34:14;;;;;;;7.22;5.15;;;6.50;71.00;;;;;;5024589;28;20068;-82
2023/12/13 03:36:40;;;;;;;7.85;5.72;;;6.50;71.00;;;;;;5017518;28;20057;-81
2023/12/13 03:39:07;;;;;;;6.60;4.88;;;6.50;70.90;;;;;;5018927;28;20029;-82
2023/12/13 03:41:33;;;;;;;8.02;5.18;;;6.50;70.90;;;;;;5018421;28;20033;-83
2023/12/13 03:43:59;;;;;;;7.22;5.20;;;6.50;71.00;;;;;;5035945;28;20084;-81
2023/12/13 03:46:25;;;;;;;7.38;5.40;;;6.50;71.00;;;;;;5018742;28;20025;-81
2023/12/13 03:48:51;;;;;;;6.55;4.75;;;6.50;71.00;;;;;;5018879;28;20040;-81
2023/12/13 03:51:17;;;;;;;7.13;5.13;;;6.50;71.00;;;;;;5018068;28;20042;-81
2023/12/13 03:53:42;;;;;;;8.20;5.88;;;6.50;71.00;;;;;;5017433;28;20052;-81
2023/12/13 03:56:10;;;;;;;7.32;5.20;;;6.50;71.00;;;;;;5015624;28;20449;-81
2023/12/13 03:58:36;;;;;;;7.60;5.65;;;6.50;71.00;;;;;;5018298;28;20092;-81
2023/12/13 04:01:02;;;;;;;7.78;5.40;;;6.50;71.00;;;;;;5018273;28;20041;-82
2023/12/13 04:03:27;;;;;;;7.07;5.45;;;6.50;71.00;;;;;;5036368;28;20030;-82
2023/12/13 04:05:53;;;;;;;7.65;5.75;;;6.50;71.00;;;;;;5018105;28;20030;-81
2023/12/13 04:08:19;;;;;;;6.90;5.70;;;6.50;71.00;;;;;;5035889;28;20040;-82
2023/12/13 04:10:45;;;;;;;5.63;4.75;;;6.50;71.00;;;;;;5014520;28;20037;-83
2023/12/13 04:13:11;;;;;;;6.72;5.10;;;6.40;71.00;;;;;;5027810;28;20037;-82
2023/12/13 04:15:36;;;;;;;7.18;5.43;;;6.50;71.00;;;;;;5035313;28;20479;-82
2023/12/13 04:18:03;;;;;;;8.07;5.30;;;6.50;71.00;;;;;;5018210;28;20475;-82
2023/12/13 04:20:29;;;;;;;6.95;5.32;;;6.50;71.00;;;;;;5035177;28;20030;-81
2023/12/13 04:22:55;;;;;;;6.65;5.18;;;6.50;71.00;;;;;;5018011;28;20043;-82
2023/12/13 04:25:21;;;;;;;8.52;5.88;;;6.50;71.00;;;;;;5017310;28;20120;-81
2023/12/13 04:27:47;;;;;;;9.60;6.97;;;6.50;71.00;;;;;;5017606;28;20108;-82
2023/12/13 04:30:14;;;;;;;10.32;6.82;;;6.50;71.00;;;;;;5034976;28;20040;-82
2023/12/13 04:32:40;;;;;;;10.63;6.45;;;6.50;71.10;;;;;;5030385;28;20038;-82
2023/12/13 04:35:08;;;;;;;10.10;6.95;;;6.50;71.00;;;;;;5017948;28;20327;-82
2023/12/13 04:37:40;;;;;;;9.68;6.55;;;6.50;71.10;;;;;;5016025;28;20059;-82
2023/12/13 04:40:07;;;;;;;11.57;6.95;;;6.50;71.00;;;;;;5017756;28;20025;-82
2023/12/13 04:42:33;;;;;;;10.48;7.38;;;6.50;71.00;;;;;;5035487;28;20040;-82
2023/12/13 04:44:59;;;;;;;12.50;8.02;;;6.50;71.00;;;;;;5016955;28;20092;-82
2023/12/13 04:47:25;;;;;;;11.73;8.07;;;6.50;71.00;;;;;;5016265;28;20427;-81
2023/12/13 04:49:51;;;;;;;11.57;8.10;;;6.50;70.90;;;;;;5017279;28;20038;-83
2023/12/13 04:52:17;;;;;;;12.02;8.38;;;6.50;71.00;;;;;;5016775;28;20053;-83
2023/12/13 04:54:43;;;;;;;11.38;7.60;;;6.50;71.00;;;;;;5017038;28;20030;-81
2023/12/13 04:57:09;;;;;;;11.35;7.05;;;6.50;71.00;;;;;;5017120;28;20033;-81
2023/12/13 04:59:35;;;;;;;11.05;7.13;;;6.50;71.00;;;;;;5034271;28;20040;-82
2023/12/13 05:02:01;;;;;;;9.65;6.63;;;6.50;71.00;;;;;;5017192;28;20029;-82
2023/12/13 05:04:27;;;;;;;11.13;6.88;;;6.50;71.00;;;;;;5034635;28;20036;-81
2023/12/13 05:06:53;;;;;;;10.10;6.18;;;6.50;71.00;;;;;;5017659;28;20467;-82
2023/12/13 05:09:18;;;;;;;8.90;5.78;;;6.50;71.10;;;;;;5034398;28;20116;-83
2023/12/13 05:11:45;;;;;;;9.45;6.80;;;6.50;71.00;;;;;;5035013;28;20456;-82
2023/12/13 05:14:11;;;;;;;8.90;6.45;;;6.50;71.00;;;;;;5016837;28;20080;-82
2023/12/13 05:16:36;;;;;;;7.50;5.75;;;6.50;71.00;;;;;;5016983;28;20029;-81
2023/12/13 05:19:02;;;;;;;8.05;5.35;;;6.50;71.00;;;;;;5015802;28;20120;-80
2023/12/13 05:21:28;;;;;;;7.25;5.47;;;6.50;71.00;;;;;;5034809;28;20101;-82
2023/12/13 05:23:54;;;;;;;7.60;5.22;;;6.50;71.00;;;;;;5016799;28;20144;-82
2023/12/13 05:26:20;;;;;;;8.35;5.20;;;6.50;71.00;;;;;;5033820;28;20029;-82
2023/12/13 05:28:46;;;;;;;6.40;4.68;;;6.50;71.00;;;;;;5033991;28;20442;-82
2023/12/13 05:31:19;;;;;;;6.88;4.95;;;6.50;71.00;;;;;;5034070;28;20040;-82
2023/12/13 05:33:46;;;;;;;6.60;5.27;;;6.50;71.00;;;;;;5034481;28;20029;-81
2023/12/13 05:36:12;;;;;;;8.18;5.57;;;6.50;71.00;;;;;;5035300;28;20033;-82
2023/12/13 05:38:38;;;;;;;8.10;5.50;;;6.50;71.00;;;;;;5035648;28;20108;-82
2023/12/13 05:41:04;;;;;;;7.60;5.20;;;6.50;71.00;;;;;;5015521;28;20362;-82
2023/12/13 05:43:30;;;;;;;6.47;4.90;;;6.50;71.00;;;;;;5016830;28;20103;-82
2023/12/13 05:45:56;;;;;;;6.65;4.57;;;6.50;71.00;;;;;;5016298;28;20116;-83
2023/12/13 05:48:22;;;;;;;6.10;4.72;;;6.50;71.00;;;;;;5016843;28;20471;-82
2023/12/13 05:50:47;;;;;;;4.97;4.15;;;6.50;71.00;;;;;;5033581;28;20030;-83
2023/12/13 05:53:13;;;;;;;6.22;4.30;;;6.50;71.00;;;;;;5033337;28;20117;-83
2023/12/13 05:55:39;;;;;;;5.85;4.60;;;6.50;71.00;;;;;;5016075;28;20479;-82
2023/12/13 05:58:05;;;;;;;7.00;4.82;;;6.50;71.00;;;;;;5033235;28;20116;-82
2023/12/13 06:00:31;;;;;;;5.85;4.57;;;6.50;71.00;;;;;;5033414;28;20033;-83
2023/12/13 06:02:58;;;;;;;5.70;4.45;;;6.50;71.10;;;;;;5016002;28;20029;-83
2023/12/13 06:05:24;;;;;;;6.53;4.97;;;6.50;71.00;;;;;;5013108;28;20030;-81
2023/12/13 06:07:51;;;;;;;7.03;5.05;;;6.50;71.00;;;;;;5008870;28;20429;-83
2023/12/13 06:10:17;;;;;;;6.47;4.78;;;6.50;71.10;;;;;;5011215;28;20088;-83
2023/12/13 06:12:43;;;;;;;6.00;4.68;;;6.50;71.10;;;;;;5015063;28;20061;-78
2023/12/13 06:15:09;;;;;;;6.05;4.80;;;6.50;71.10;;;;;;5013769;28;20542;-85
2023/12/13 06:17:35;;;;;;;5.63;4.78;;;6.60;71.10;;;;;;5010426;28;20029;-79
2023/12/13 06:20:01;;;;;;;5.85;4.60;;;6.50;71.10;;;;;;5015731;28;20030;-82
2023/12/13 06:22:28;;;;;;;8.10;6.45;;;6.60;71.10;;;;;;5016639;28;20026;-81
2023/12/13 06:24:56;;;;;;;7.20;5.30;;;6.50;71.10;;;;;;5016460;28;20026;-82
2023/12/13 06:27:22;;;;;;;6.30;5.30;;;6.60;71.10;;;;;;5033646;28;20060;-82
2023/12/13 06:29:48;;;;;;;6.60;5.10;;;6.60;71.10;;;;;;5033374;28;20044;-84
2023/12/13 06:32:14;;;;;;;6.32;4.97;;;6.60;71.10;;;;;;5029084;28;20105;-82
2023/12/13 06:34:39;;;;;;;6.68;5.25;;;6.60;71.10;;;;;;5033746;28;20488;-81
2023/12/13 06:37:06;;;;;;;6.32;4.80;;;6.60;71.10;;;;;;5015643;28;20049;-82
2023/12/13 06:39:32;;;;;;;8.35;5.72;;;6.60;71.10;;;;;;5015862;28;20033;-81
2023/12/13 06:42:00;;;;;;;7.43;5.32;;;6.60;71.10;;;;;;5033717;28;20408;-81
2023/12/13 06:44:26;;;;;;;7.28;6.00;;;6.60;71.60;;;;;;5015912;28;20034;-81
2023/12/13 06:46:52;;;;;;;7.38;5.88;;;6.70;71.10;;;;;;5016002;28;20586;-81
2023/12/13 06:49:18;;;;;;;7.18;5.88;;;6.70;71.20;;;;;;5033768;28;20025;-82
2023/12/13 06:51:44;;;;;;;7.35;5.90;;;6.70;71.10;;;;;;5015779;28;20026;-83
2023/12/13 06:54:10;;;;;;;8.98;6.32;;;6.70;71.10;;;;;;5016303;28;20464;-82
2023/12/13 06:56:38;;;;;;;8.38;6.60;;;6.70;71.10;;;;;;4999287;28;20036;-80
2023/12/13 06:59:04;;;;;;;8.60;6.45;;;6.70;71.10;;;;;;5014459;28;20036;-80
2023/12/13 07:01:31;;;;;;;9.43;7.03;;;6.70;71.10;;;;;;5015707;28;20029;-80
2023/12/13 07:03:56;;;;;;;9.60;6.85;;;6.70;71.10;;;;;;5015580;28;20097;-78
2023/12/13 07:06:22;;;;;;;9.27;7.18;;;6.70;71.10;;;;;;5033162;28;20055;-80
2023/12/13 07:08:48;;;;;;;9.93;7.18;;;6.70;71.10;;;;;;5033200;28;20033;-79
2023/12/13 07:11:14;;;;;;;10.02;7.65;;;6.70;71.10;;;;;;5036661;28;20060;-75
2023/12/13 07:13:40;;;;;;;11.05;7.88;;;6.70;71.10;;;;;;5036954;28;20072;-80
2023/12/13 07:16:07;;;;;;;10.35;6.97;;;6.70;71.10;;;;;;5037137;28;20108;-77
2023/12/13 07:18:33;;;;;;;8.35;6.53;;;6.80;71.20;;;;;;5019070;28;20068;-76
2023/12/13 07:20:59;;;;;;;8.48;6.47;;;6.80;71.20;;;;;;5036953;28;20050;-80
2023/12/13 07:23:25;;;;;;;8.85;6.43;;;6.80;71.20;;;;;;5036304;28;20029;-80
2023/12/13 07:25:51;;;;;;;9.85;6.47;;;6.80;71.20;;;;;;5019244;28;20455;-78
2023/12/13 07:28:17;;;;;;;8.45;6.50;;;6.80;71.10;;;;;;5037065;28;20028;-81
2023/12/13 07:30:43;;;;;;;9.77;6.88;;;6.80;71.10;;;;;;5017873;28;20021;-78
2023/12/13 07:33:09;;;;;;;10.48;7.03;;;6.80;71.10;;;;;;5035278;28;20046;-78
2023/12/13 07:35:35;;;;;;;9.27;7.07;;;6.80;71.10;;;;;;5035191;28;20041;-79
2023/12/13 07:38:01;;;;;;;11.25;7.15;;;6.80;71.10;;;;;;5017197;28;20022;-78
2023/12/13 07:40:27;;;;;;;9.52;6.70;;;6.80;71.10;;;;;;5035197;28;20045;-79
2023/12/13 07:42:53;;;;;;;11.20;7.40;;;6.80;71.10;;;;;;5034772;28;20029;-78
2023/12/13 07:45:20;;;;;;;9.73;6.93;;;6.80;71.10;;;;;;5017360;28;20801;-80
2023/12/13 07:47:48;;;;;;;9.02;6.47;;;6.90;71.10;;;;;;5035571;28;20026;-82
2023/12/13 07:50:14;;;;;;;10.35;6.85;;;6.90;71.10;;;;;;5034470;28;20037;-80
2023/12/13 07:52:40;;;;;;;9.02;6.60;;;7.00;71.10;;;;;;5007594;28;20056;-81
2023/12/13 07:55:06;;;;;;;9.38;6.90;;;7.00;71.00;;;;;;5014920;28;20469;-79
2023/12/13 07:57:32;;;;;;;10.07;7.28;;;7.00;70.90;;;;;;5014681;28;20033;-78
2023/12/13 07:59:58;;;;;;;8.27;6.72;;;7.00;70.80;;;;;;4996303;28;20038;-77
2023/12/13 08:02:24;;;;;;;9.35;6.40;;;7.10;70.90;;;;;;4994250;28;20117;-80
2023/12/13 08:04:50;;;;;;;11.00;7.53;;;7.00;70.70;;;;;;4991724;28;20633;-81
2023/12/13 08:07:16;;;;;;;9.35;6.80;;;7.10;70.80;;;;;;5014945;28;20030;-80
2023/12/13 08:09:43;;;;;;;9.23;6.75;;;7.10;70.80;;;;;;5014679;28;20018;-83
2023/12/13 08:12:09;;;;;;;9.80;6.85;;;7.10;70.80;;;;;;5014661;28;20393;-81
2023/12/13 08:14:34;;;;;;;9.02;6.68;;;7.10;70.80;;;;;;4997172;28;20560;-81
2023/12/13 08:17:06;;;;;;;8.38;6.53;;;7.10;70.80;;;;;;4997080;28;20125;-79
2023/12/13 08:19:36;;;;;;;8.60;6.25;;;7.10;70.70;;;;;;5021139;28;20124;-79
2023/12/13 08:22:03;;;;;;;9.90;6.72;;;7.10;70.70;;;;;;4996701;28;20037;-80
2023/12/13 08:24:29;;;;;;;8.23;5.82;;;7.20;70.80;;;;;;4996773;28;20030;-79
2023/12/13 08:26:55;;;;;;;8.52;6.32;;;7.20;70.80;;;;;;4995645;28;20034;-78
2023/12/13 08:29:21;;;;;;;8.70;6.30;;;7.20;70.70;;;;;;5014067;28;20396;-80
2023/12/13 08:31:46;;;;;;;7.55;5.53;;;7.20;70.70;;;;;;5014112;28;20025;-81
2023/12/13 08:34:12;;;;;;;8.15;6.07;;;7.20;70.70;;;;;;4996216;28;20030;-81
2023/12/13 08:36:38;;;;;;;7.13;5.22;;;7.30;70.60;;;;;;5014153;28;20460;-80
2023/12/13 08:39:06;;;;;;;7.88;5.30;;;7.30;70.50;;;;;;4979916;28;20030;-80
2023/12/13 08:41:32;;;;;;;6.68;5.07;;;7.30;70.50;;;;;;5014458;28;20090;-84
2023/12/13 08:43:58;;;;;;;6.70;5.30;;;7.30;70.50;;;;;;5014347;28;20036;-81
2023/12/13 08:46:23;;;;;;;6.38;5.20;;;7.40;70.50;;;;;;5012557;28;20097;-78
2023/12/13 08:48:50;;;;;;;7.18;5.38;;;7.40;70.50;;;;;;5014073;28;20018;-80
2023/12/13 08:51:15;;;;;;;7.75;5.97;;;7.40;70.40;;;;;;4996160;28;20034;-80
2023/12/13 08:53:41;;;;;;;8.63;5.60;;;7.40;70.40;;;;;;4987762;28;20056;-80
2023/12/13 08:56:09;;;;;;;9.25;5.95;;;7.40;70.40;;;;;;4986331;28;20052;-79
2023/12/13 08:58:35;;;;;;;8.48;5.57;;;7.40;70.40;;;;;;4989225;28;20019;-79
2023/12/13 09:01:01;;;;;;;8.23;6.32;;;7.40;70.40;;;;;;5000692;28;20033;-79
2023/12/13 09:03:27;;;;;;;8.50;5.85;;;7.40;70.40;;;;;;4989755;28;20386;-79
2023/12/13 09:05:53;;;;;;;7.32;6.05;;;7.40;70.40;;;;;;5003635;28;20030;-79
2023/12/13 09:08:20;;;;;;;8.65;6.20;;;7.50;70.50;;;;;;4984783;28;20120;-79
2023/12/13 09:10:46;;;;;;;7.93;5.78;;;7.50;70.40;;;;;;4987484;28;20030;-80
2023/12/13 09:13:12;;;;;;;9.90;6.97;;;7.50;70.40;;;;;;4985083;28;20038;-79
2023/12/13 09:15:37;;;;;;;9.88;6.97;;;7.50;70.40;;;;;;5021778;28;20045;-80
2023/12/13 09:18:03;;;;;;;10.27;7.32;;;7.50;70.40;;;;;;5002679;28;20080;-81
2023/12/13 09:20:29;;;;;;;12.32;8.85;;;7.50;70.40;;;;;;5004683;28;20026;-79
2023/12/13 09:22:55;;;;;;;12.48;9.00;;;7.50;70.30;;;;;;5007545;28;20026;-79
2023/12/13 09:25:21;;;;;;;12.45;9.00;;;7.50;70.30;;;;;;4985508;28;20025;-80
2023/12/13 09:27:46;;;;;;;13.73;8.77;;;7.60;70.30;;;;;;5002144;28;20019;-80
2023/12/13 09:30:13;;;;;;;14.02;10.07;;;7.60;70.30;;;;;;5018694;28;20216;-80
2023/12/13 09:32:40;;;;;;;15.05;10.07;;;7.60;70.30;;;;;;5003733;28;20589;-79
2023/12/13 09:35:06;;;;;;;14.52;10.60;;;7.60;70.30;;;;;;4990803;28;20080;-85
2023/12/13 09:37:33;;;;;;;14.48;10.32;;;7.60;70.20;;;;;;4986084;28;20038;-82
2023/12/13 09:40:02;;;;;;;13.30;9.57;;;7.70;70.30;;;;;;4999665;28;20030;-79
2023/12/13 09:42:29;;;;;;;14.00;9.55;;;7.70;70.30;;;;;;5014695;28;20025;-82
2023/12/13 09:44:55;;;;;;;13.18;9.38;;;7.70;70.30;;;;;;5010642;28;20530;-77
2023/12/13 09:47:23;;;;;;;13.60;8.93;;;7.70;70.20;;;;;;5009102;28;20037;-84
2023/12/13 09:49:53;;;;;;;11.00;8.63;;;7.70;70.20;;;;;;4985242;28;20425;-78
2023/12/13 09:52:20;;;;;;;12.82;8.68;;;7.70;70.20;;;;;;4991504;28;20069;-81
2023/12/13 09:54:47;;;;;;;10.43;7.90;;;7.70;70.20;;;;;;5029966;28;20045;-79
2023/12/13 09:57:15;;;;;;;11.25;8.50;;;7.80;70.20;;;;;;5013576;28;20164;-79
2023/12/13 09:59:40;;;;;;;10.77;8.23;;;7.80;70.10;;;;;;5014163;28;20037;-79
2023/12/13 10:02:12;;;;;;;10.10;7.90;;;7.80;70.10;;;;;;5032723;28;20028;-79
2023/12/13 10:04:39;;;;;;;9.95;7.40;;;7.80;70.00;;;;;;5014267;28;20037;-82
2023/12/13 10:07:08;;;;;;;10.32;6.90;;;7.90;70.00;;;;;;5011687;28;20022;-81
2023/12/13 10:09:34;;;;;;;10.45;7.43;;;7.90;70.00;;;;;;5013609;28;20416;-78
2023/12/13 10:12:01;;;;;;;9.40;6.35;;;7.90;70.00;;;;;;5014001;28;20061;-78
2023/12/13 10:14:27;;;;;;;10.00;7.03;;;7.80;70.00;;;;;;5009553;28;20125;-78
2023/12/13 10:16:53;;;;;;;9.40;6.68;;;7.90;70.00;;;;;;5014032;28;20028;-78
2023/12/13 10:19:19;;;;;;;9.82;7.15;;;7.90;69.90;;;;;;5013551;28;20124;-76
2023/12/13 10:21:54;;;;;;;9.40;6.80;;;7.90;69.90;;;;;;5011777;28;20476;-77
2023/12/13 10:24:24;;;;;;;9.30;6.90;;;7.90;69.90;;;;;;5032001;28;20471;-78
2023/12/13 10:26:52;;;;;;;8.65;6.55;;;7.90;69.90;;;;;;5014194;28;20157;-78
2023/12/13 10:29:20;;;;;;;12.55;6.85;;;7.90;69.80;;;;;;5031945;28;20029;-82
2023/12/13 10:31:46;;;;;;;8.13;6.55;;;7.90;69.90;;;;;;5032110;28;20025;-79
2023/12/13 10:34:11;;;;;;;9.90;6.63;;;7.90;69.90;;;;;;5011491;28;20057;-83
2023/12/13 10:36:39;;;;;;;10.25;6.97;;;7.90;69.90;;;;;;5007905;28;20114;-86
2023/12/13 10:39:07;;;;;;;8.60;6.10;;;7.90;69.90;;;;;;5027774;28;20033;-82
2023/12/13 10:41:34;;;;;;;8.80;6.88;;;7.90;69.90;;;;;;5012854;28;20029;-83
2023/12/13 10:44:02;;;;;;;9.65;7.13;;;7.90;69.90;;;;;;5032131;28;20033;-83
2023/12/13 10:46:34;;;;;;;10.20;7.60;;;7.90;69.90;;;;;;5016209;28;20072;-82
2023/12/13 10:49:03;;;;;;;9.57;6.82;;;7.90;70.00;;;;;;5018355;28;20049;-80
2023/12/13 10:51:29;;;;;;;10.07;7.25;;;7.90;70.00;;;;;;5035355;28;20468;-81
2023/12/13 10:53:56;;;;;;;10.82;7.93;;;7.90;70.00;;;;;;5008626;28;20048;-83
2023/12/13 10:56:22;;;;;;;11.63;8.05;;;7.90;70.00;;;;;;5016799;28;20057;-80
2023/12/13 10:58:48;;;;;;;9.50;7.25;;;7.90;70.40;;;;;;5006723;28;20056;-82
2023/12/13 11:01:15;;;;;;;11.02;7.95;;;7.90;70.00;;;;;;5006042;28;20037;-81
2023/12/13 11:03:51;;;;;;;9.85;7.53;;;7.90;70.10;;;;;;5015457;28;21394;-81
2023/12/13 11:06:17;;;;;;;9.82;7.68;;;7.90;70.00;;;;;;5006203;28;20057;-81
2023/12/13 11:08:44;;;;;;;8.88;6.68;;;7.90;70.00;;;;;;5006295;28;20539;-82
2023/12/13 11:11:13;;;;;;;8.13;6.40;;;7.90;70.00;;;;;;5015809;28;20018;-83
2023/12/13 11:13:50;;;;;;;10.55;6.88;;;7.90;70.00;;;;;;5006462;28;20030;-81
2023/12/13 11:16:24;;;;;;;8.82;6.90;;;8.00;70.00;;;;;;5010040;28;20029;-85
2023/12/13 11:18:56;;;;;;;8.65;6.68;;;7.90;70.50;;;;;;5037000;28;20025;-82
2023/12/13 11:21:26;;;;;;;9.00;6.32;;;8.00;70.00;;;;;;5017313;28;20546;-83
2023/12/13 11:23:58;;;;;;;8.30;6.03;;;7.90;69.90;;;;;;4999354;28;20052;-80
2023/12/13 11:26:26;;;;;;;8.25;6.38;;;7.90;69.90;;;;;;4999527;28;20033;-83
2023/12/13 11:28:54;;;;;;;7.80;6.22;;;7.90;70.50;;;;;;5017046;28;20472;-81
2023/12/13 11:31:26;;;;;;;7.55;5.72;;;7.90;70.00;;;;;;4999818;28;20033;-84
2023/12/13 11:33:59;;;;;;;8.52;6.60;;;7.90;70.00;;;;;;5017063;28;20480;-84
2023/12/13 11:36:25;;;;;;;8.93;6.03;;;7.90;70.00;;;;;;5015352;28;20581;-86
2023/12/13 11:38:55;;;;;;;8.23;6.07;;;7.90;70.00;;;;;;4999580;28;20046;-87
2023/12/13 11:41:22;;;;;;;6.65;5.85;;;7.90;70.00;;;;;;4999199;28;20471;-87
2023/12/13 11:43:48;;;;;;;8.30;5.88;;;7.90;70.00;;;;;;5017040;28;20037;-88
2023/12/13 11:46:14;;;;;;;8.15;6.00;;;7.90;70.00;;;;;;4991075;28;20026;-83
2023/12/13 11:48:43;;;;;;;8.05;6.15;;;7.90;70.00;;;;;;5015840;28;20114;-85
2023/12/13 11:51:09;;;;;;;9.05;6.43;;;7.90;70.10;;;;;;5016271;28;20036;-85
2023/12/13 11:53:35;;;;;;;8.60;6.50;;;7.90;70.10;;;;;;5016639;28;20403;-87
2023/12/13 11:56:07;;;;;;;8.23;6.90;;;7.90;70.10;;;;;;4998899;28;20121;-85
2023/12/13 11:58:33;;;;;;;11.05;7.63;;;7.90;70.10;;;;;;4998687;28;20030;-82
2023/12/13 12:00:59;;;;;;;10.40;7.40;;;7.90;70.10;;;;;;4998556;28;20033;-84
2023/12/13 12:03:27;;;;;;;9.00;7.28;;;7.90;70.10;;;;;;5017181;28;20064;-89
2023/12/13 12:05:54;;;;;;;9.95;7.78;;;7.80;70.10;;;;;;5016190;28;20024;-87
2023/12/13 12:08:26;;;;;;;9.65;6.63;;;7.80;70.10;;;;;;5008043;28;20109;-87
2023/12/13 12:10:52;;;;;;;10.15;7.90;;;7.80;70.20;;;;;;5037434;28;20095;-86
2023/12/13 12:13:19;;;;;;;10.68;6.80;;;7.80;70.10;;;;;;5019144;28;20098;-88
2023/12/13 12:15:45;;;;;;;10.63;7.45;;;7.80;70.20;;;;;;5027452;28;20026;-84
2023/12/13 12:18:12;;;;;;;8.00;6.38;;;7.70;70.20;;;;;;4998961;28;20033;-88
2023/12/13 12:20:40;;;;;;;9.15;6.45;;;7.80;70.90;;;;;;5016679;28;20014;-87
2023/12/13 12:23:07;;;;;;;8.02;6.22;;;7.70;70.30;;;;;;5016789;28;20034;-87
2023/12/13 12:25:33;;;;;;;9.52;6.35;;;7.70;70.30;;;;;;4998483;28;20061;-88
2023/12/13 12:27:59;;;;;;;9.05;6.60;;;7.70;70.30;;;;;;5034168;28;20107;-85
2023/12/13 12:30:25;;;;;;;9.13;6.30;;;7.70;70.30;;;;;;5018937;28;20036;-83
2023/12/13 12:32:51;;;;;;;8.32;5.75;;;7.70;70.30;;;;;;5037763;28;20431;-84
2023/12/13 12:35:17;;;;;;;8.00;5.97;;;7.70;70.40;;;;;;5018684;28;20037;-83
2023/12/13 12:37:43;;;;;;;8.25;6.05;;;7.70;70.40;;;;;;5004487;28;20033;-87
2023/12/13 12:40:09;;;;;;;7.90;5.97;;;7.70;70.40;;;;;;5000588;28;20025;-85
2023/12/13 12:42:35;;;;;;;10.05;6.50;;;7.70;70.50;;;;;;5016979;28;20033;-82
2023/12/13 12:45:01;;;;;;;7.50;5.97;;;7.60;70.50;;;;;;4998347;28;20104;-84
2023/12/13 12:47:27;;;;;;;8.98;6.13;;;7.60;70.50;;;;;;5018409;28;20399;-82
2023/12/13 12:49:52;;;;;;;7.97;6.15;;;7.60;70.60;;;;;;5035410;28;20031;-83
2023/12/13 12:52:22;;;;;;;7.85;5.68;;;7.60;70.80;;;;;;5017879;28;20183;-83